Time;durP1;ratioP1;P1;durP2;ratioP2;P2;SDS_P1;SDS_P2;PMS_P1;PMS_P2;Temp;Humidity;BMP_temperature;BMP_pressure;BME280_temperature;BME280_humidity;BME280_pressure;Samples;Min_cycle;Max_cycle;Signal;HPM_P1;HPM_P2
2022/10/25 00:00:26;;;;;;;15.13;9.55;;;;;;;16.91;100.00;100951.31;5064751;28;20108;-63
2022/10/25 00:02:51;;;;;;;19.95;11.73;;;;;;;16.89;100.00;100946.22;5063305;28;20048;-66
2022/10/25 00:05:17;;;;;;;19.45;10.30;;;;;;;16.89;100.00;100934.88;5065180;28;20494;-65
2022/10/25 00:07:42;;;;;;;17.85;9.82;;;;;;;16.88;100.00;100938.50;5063429;28;20574;-64
2022/10/25 00:10:08;;;;;;;17.65;10.40;;;;;;;16.88;100.00;100949.03;5064347;28;20051;-61
2022/10/25 00:12:40;;;;;;;17.88;10.23;;;;;;;16.86;100.00;100946.56;5066019;28;20372;-61
2022/10/25 00:15:06;;;;;;;17.27;11.10;;;;;;;16.85;100.00;100954.63;5080255;28;20021;-65
2022/10/25 00:17:32;;;;;;;18.17;10.40;;;;;;;16.86;100.00;100970.25;5067060;28;20042;-63
2022/10/25 00:19:57;;;;;;;20.77;11.77;;;;;;;16.81;100.00;100985.72;5065616;28;20034;-63
2022/10/25 00:22:23;;;;;;;22.40;11.07;;;;;;;16.79;100.00;101000.88;5063188;28;20025;-63
2022/10/25 00:24:48;;;;;;;19.30;11.45;;;;;;;16.76;100.00;101000.41;5064574;28;20118;-65
2022/10/25 00:27:14;;;;;;;18.15;12.00;;;;;;;16.78;100.00;100993.97;5066253;28;20096;-62
2022/10/25 00:29:40;;;;;;;15.85;9.90;;;;;;;16.89;100.00;100993.59;5065848;28;20059;-63
2022/10/25 00:32:05;;;;;;;17.40;10.38;;;;;;;16.92;100.00;100995.88;5065958;28;20441;-64
2022/10/25 00:34:31;;;;;;;12.82;9.02;;;;;;;16.91;100.00;100991.59;5065960;28;20123;-61
2022/10/25 00:36:56;;;;;;;7.65;4.95;;;;;;;16.94;100.00;100984.34;5068104;28;20040;-62
2022/10/25 00:39:22;;;;;;;9.00;4.45;;;;;;;16.98;100.00;100996.19;5071414;28;20331;-66
2022/10/25 00:41:47;;;;;;;6.97;4.03;;;;;;;17.02;100.00;100998.28;5069076;28;20043;-63
2022/10/25 00:44:35;;;;;;;3.65;1.70;;;;;;;16.91;100.00;100988.16;5067400;28;20049;-65
2022/10/25 00:47:23;;;;;;;3.83;2.20;;;;;;;16.83;100.00;100985.56;5065743;28;20745;-63
2022/10/25 00:49:54;;;;;;;3.63;0.75;;;;;;;16.60;100.00;100969.69;5050288;28;20550;-63
2022/10/25 00:52:20;;;;;;;6.75;0.70;;;;;;;16.46;100.00;100975.69;5061884;28;20024;-63
2022/10/25 00:54:50;;;;;;;1.90;0.50;;;;;;;16.34;100.00;100971.78;5069076;28;20510;-63
2022/10/25 00:57:39;;;;;;;1.40;0.38;;;;;;;16.28;100.00;100978.53;5069412;28;20422;-64
2022/10/25 01:00:06;;;;;;;1.60;0.50;;;;;;;16.26;100.00;100980.50;5066094;28;20171;-62
2022/10/25 01:02:32;;;;;;;2.67;0.45;;;;;;;16.24;100.00;100974.59;5067633;28;20125;-64
2022/10/25 01:04:58;;;;;;;0.93;0.30;;;;;;;16.31;100.00;100961.59;5069813;28;20028;-63
2022/10/25 01:07:24;;;;;;;3.85;0.30;;;;;;;16.28;100.00;100946.97;5068249;28;20411;-62
2022/10/25 01:09:50;;;;;;;1.70;0.20;;;;;;;16.21;100.00;100935.50;5064071;28;20032;-61
2022/10/25 01:12:16;;;;;;;0.90;0.20;;;;;;;16.19;100.00;100937.47;5068605;28;20036;-60
2022/10/25 01:14:47;;;;;;;1.38;0.20;;;;;;;16.23;100.00;100926.44;5069840;28;20044;-65
2022/10/25 01:17:21;;;;;;;1.23;0.30;;;;;;;16.30;100.00;100928.41;5066946;28;20399;-63
2022/10/25 01:20:24;;;;;;;2.42;0.30;;;;;;;16.37;100.00;100939.88;5067908;28;20054;-63
2022/10/25 01:23:01;;;;;;;1.45;0.40;;;;;;;16.37;100.00;100932.81;5066311;28;20548;-65
2022/10/25 01:25:48;;;;;;;4.10;0.30;;;;;;;16.09;100.00;100927.16;5069531;28;20032;-63
2022/10/25 01:28:36;;;;;;;3.10;0.30;;;;;;;15.80;100.00;100932.97;5068285;28;20028;-65
2022/10/25 01:31:16;;;;;;;1.40;0.30;;;;;;;15.66;100.00;100935.44;5061192;28;20523;-63
2022/10/25 01:33:45;;;;;;;2.53;0.30;;;;;;;15.69;100.00;100927.25;5083178;28;20048;-64
2022/10/25 01:36:32;;;;;;;4.53;0.30;;;;;;;15.55;100.00;100931.34;5067862;28;20086;-64
2022/10/25 01:39:28;;;;;;;1.27;0.20;;;;;;;15.45;100.00;100918.38;5067603;28;20121;-67
2022/10/25 01:42:06;;;;;;;0.83;0.30;;;;;;;15.41;100.00;100922.31;5063265;28;20147;-63
2022/10/25 01:45:14;;;;;;;2.30;0.30;;;;;;;15.47;100.00;100913.78;5064315;28;20063;-65
2022/10/25 01:48:01;;;;;;;1.85;0.30;;;;;;;15.59;100.00;100907.25;5055842;28;20538;-64
2022/10/25 01:50:30;;;;;;;1.40;0.32;;;;;;;15.55;100.00;100892.78;5067569;28;20035;-65
2022/10/25 01:52:55;;;;;;;2.40;0.40;;;;;;;15.52;100.00;100903.63;5066348;28;20032;-66
2022/10/25 01:55:29;;;;;;;3.28;0.40;;;;;;;15.52;100.00;100908.06;5066347;28;20391;-63
2022/10/25 01:58:17;;;;;;;2.97;0.52;;;;;;;15.47;100.00;100916.41;5068216;28;20046;-66
2022/10/25 02:01:00;;;;;;;1.63;0.30;;;;;;;15.39;100.00;100926.91;5065036;28;20066;-65
2022/10/25 02:03:42;;;;;;;2.25;0.30;;;;;;;15.26;100.00;100916.91;5065862;28;20103;-65
2022/10/25 02:06:27;;;;;;;3.13;0.30;;;;;;;15.20;100.00;100903.63;5057141;28;20496;-65
2022/10/25 02:09:11;;;;;;;1.13;0.30;;;;;;;15.08;100.00;100894.44;5066169;28;20078;-64
2022/10/25 02:11:36;;;;;;;2.42;0.70;;;;;;;15.12;100.00;100885.25;5048497;28;20033;-65
2022/10/25 02:14:17;;;;;;;4.88;0.50;;;;;;;15.19;100.00;100871.28;5057893;28;20127;-66
2022/10/25 02:16:55;;;;;;;3.35;0.40;;;;;;;15.27;100.00;100852.09;5058117;28;20028;-64
2022/10/25 02:19:29;;;;;;;1.90;0.20;;;;;;;15.38;100.00;100843.06;5068029;28;20033;-63
2022/10/25 02:21:56;;;;;;;0.90;0.20;;;;;;;15.51;100.00;100836.31;5065986;28;20032;-64
2022/10/25 02:24:26;;;;;;;2.15;0.30;;;;;;;15.67;100.00;100863.56;5064153;28;20101;-65
2022/10/25 02:26:53;;;;;;;1.83;0.40;;;;;;;15.65;100.00;100855.84;5067477;28;20075;-63
2022/10/25 02:29:21;;;;;;;4.22;0.95;;;;;;;15.60;100.00;100832.69;5064508;28;20097;-63
2022/10/25 02:31:47;;;;;;;1.63;0.82;;;;;;;15.59;100.00;100825.84;5066630;28;20052;-63
2022/10/25 02:34:12;;;;;;;1.52;0.80;;;;;;;16.06;100.00;100832.91;5065500;28;20444;-64
2022/10/25 02:36:38;;;;;;;3.88;0.70;;;;;;;16.18;100.00;100847.28;5068068;28;20031;-63
2022/10/25 02:39:05;;;;;;;1.52;0.40;;;;;;;16.00;100.00;100885.31;5064089;28;20142;-62
2022/10/25 02:41:32;;;;;;;12.95;1.05;;;;;;;15.70;100.00;100934.13;5068245;28;20032;-63
2022/10/25 02:43:58;;;;;;;3.00;0.65;;;;;;;14.89;100.00;100990.84;5060557;28;20048;-68
2022/10/25 02:46:24;;;;;;;5.55;0.70;;;;;;;14.06;100.00;101005.50;5065959;28;20047;-71
2022/10/25 02:48:50;;;;;;;5.28;0.70;;;;;;;13.77;100.00;100991.84;5066300;28;20064;-67
2022/10/25 02:51:16;;;;;;;3.47;0.52;;;;;;;13.65;100.00;100959.06;5067956;28;20020;-67
2022/10/25 02:53:42;;;;;;;1.33;0.28;;;;;;;13.67;100.00;100949.25;5065307;28;20043;-68
2022/10/25 02:56:14;;;;;;;3.70;0.20;;;;;;;13.68;100.00;100943.03;5065120;28;20036;-67
2022/10/25 02:58:41;;;;;;;1.05;0.10;;;;;;;13.71;100.00;100929.63;5346461;22;20077;-89
2022/10/25 03:01:08;;;;;;;2.15;0.20;;;;;;;13.68;100.00;100924.72;5048933;28;20036;-89
2022/10/25 03:03:34;;;;;;;2.25;0.20;;;;;;;13.67;100.00;100923.06;5047757;28;20410;-84
2022/10/25 03:06:00;;;;;;;2.40;0.10;;;;;;;13.69;100.00;100937.66;5064457;28;20032;-84
2022/10/25 03:08:26;;;;;;;0.68;0.10;;;;;;;13.72;100.00;100937.31;5063878;28;20040;-83
2022/10/25 03:10:52;;;;;;;4.20;0.17;;;;;;;13.70;100.00;100933.22;5048662;28;20040;-84
2022/10/25 03:13:18;;;;;;;1.60;0.20;;;;;;;13.69;100.00;100908.03;5047392;28;20393;-83
2022/10/25 03:15:44;;;;;;;0.68;0.10;;;;;;;13.69;100.00;100913.25;5047441;28;20328;-84
2022/10/25 03:18:10;;;;;;;4.07;0.10;;;;;;;13.71;100.00;100913.91;5049006;28;20338;-83
2022/10/25 03:20:36;;;;;;;0.47;0.10;;;;;;;13.69;100.00;100919.31;5048606;28;20438;-83
2022/10/25 03:23:02;;;;;;;0.73;0.08;;;;;;;13.69;100.00;100916.69;5048959;28;20044;-85
2022/10/25 03:25:27;;;;;;;0.60;0.00;;;;;;;13.68;100.00;100909.81;5047462;28;20110;-82
2022/10/25 03:27:52;;;;;;;0.47;0.10;;;;;;;13.68;100.00;100917.69;5047516;28;20443;-83
2022/10/25 03:30:18;;;;;;;2.38;0.10;;;;;;;13.67;100.00;100936.97;5063870;28;20540;-86
2022/10/25 03:32:43;;;;;;;1.20;0.05;;;;;;;13.75;100.00;100946.66;5048955;28;20028;-86
2022/10/25 03:35:09;;;;;;;2.17;0.55;;;;;;;13.82;100.00;100971.28;5048726;28;20361;-86
2022/10/25 03:37:34;;;;;;;3.00;0.20;;;;;;;13.85;100.00;100969.16;5047267;28;20507;-85
2022/10/25 03:40:00;;;;;;;2.35;0.47;;;;;;;13.82;100.00;100963.41;5063723;28;20021;-85
2022/10/25 03:42:25;;;;;;;3.47;0.30;;;;;;;13.86;100.00;100954.28;5064337;28;20388;-85
2022/10/25 03:44:51;;;;;;;3.95;0.10;;;;;;;13.84;100.00;100954.44;5047151;28;20033;-83
2022/10/25 03:47:17;;;;;;;4.72;0.20;;;;;;;13.90;100.00;100972.16;5046786;28;20057;-87
2022/10/25 03:49:43;;;;;;;3.65;0.32;;;;;;;13.88;100.00;100973.28;5048589;28;20637;-83
2022/10/25 03:52:09;;;;;;;1.80;0.22;;;;;;;13.88;100.00;100974.09;5048574;28;20048;-84
2022/10/25 03:54:34;;;;;;;1.45;0.20;;;;;;;13.84;100.00;100972.75;5048800;28;20047;-88
2022/10/25 03:57:00;;;;;;;1.63;0.20;;;;;;;13.86;100.00;100980.47;5048355;28;20029;-84
2022/10/25 03:59:26;;;;;;;2.38;0.20;;;;;;;13.91;100.00;100984.28;5046625;28;20049;-84
2022/10/25 04:01:53;;;;;;;5.60;0.30;;;;;;;13.97;100.00;100990.69;5048311;28;20134;-85
2022/10/25 04:04:19;;;;;;;4.45;0.30;;;;;;;13.96;100.00;100996.91;5048228;28;20102;-84
2022/10/25 04:06:44;;;;;;;4.53;0.20;;;;;;;13.91;100.00;100994.75;5048815;28;20059;-84
2022/10/25 04:09:10;;;;;;;1.02;0.10;;;;;;;13.88;100.00;100995.06;5049195;28;20032;-82
2022/10/25 04:11:35;;;;;;;0.40;0.10;;;;;;;13.86;100.00;100989.16;5052511;28;20053;-82
2022/10/25 04:14:01;;;;;;;6.13;0.30;;;;;;;13.86;100.00;100985.69;5050860;28;20020;-86
2022/10/25 04:16:26;;;;;;;2.03;0.25;;;;;;;13.95;100.00;101000.50;5050458;28;20025;-85
2022/10/25 04:18:52;;;;;;;3.00;0.30;;;;;;;13.99;100.00;100991.38;5051038;28;20518;-86
2022/10/25 04:21:21;;;;;;;1.55;0.45;;;;;;;14.02;100.00;100985.81;5067778;28;20032;-84
2022/10/25 04:23:48;;;;;;;4.25;0.50;;;;;;;14.07;100.00;100988.81;5051147;28;20419;-86
2022/10/25 04:26:16;;;;;;;2.75;0.80;;;;;;;14.11;100.00;101005.88;5050705;28;20047;-87
2022/10/25 04:28:42;;;;;;;5.68;0.60;;;;;;;14.18;100.00;101027.81;5052163;28;20028;-85
2022/10/25 04:31:07;;;;;;;11.43;1.00;;;;;;;14.23;100.00;101019.50;5050819;28;20139;-84
2022/10/25 04:33:32;;;;;;;7.95;0.70;;;;;;;14.23;100.00;101004.59;5067492;28;20028;-86
2022/10/25 04:35:58;;;;;;;5.15;0.60;;;;;;;14.23;100.00;100999.34;5067409;28;20017;-84
2022/10/25 04:38:23;;;;;;;4.50;0.77;;;;;;;14.25;100.00;100993.97;5051814;28;20192;-85
2022/10/25 04:40:53;;;;;;;4.63;0.90;;;;;;;14.23;100.00;100988.88;5067020;28;20064;-84
2022/10/25 04:43:19;;;;;;;3.30;1.02;;;;;;;14.23;100.00;100980.19;5050278;28;20514;-84
2022/10/25 04:45:44;;;;;;;3.55;0.80;;;;;;;14.21;100.00;100982.16;5067133;28;20033;-84
2022/10/25 04:48:10;;;;;;;5.45;1.15;;;;;;;14.22;100.00;100987.22;5050158;28;20024;-84
2022/10/25 04:50:36;;;;;;;3.05;0.40;;;;;;;14.18;100.00;100985.91;5050396;28;20032;-85
2022/10/25 04:53:03;;;;;;;2.95;0.70;;;;;;;14.14;100.00;100981.97;5051785;28;20106;-85
2022/10/25 04:55:30;;;;;;;1.20;0.35;;;;;;;14.10;100.00;100977.19;5050468;28;20036;-84
2022/10/25 04:57:56;;;;;;;1.42;0.20;;;;;;;14.04;100.00;100967.34;5066338;28;20063;-85
2022/10/25 05:00:21;;;;;;;2.85;0.45;;;;;;;13.94;100.00;100956.94;5051593;28;20495;-83
2022/10/25 05:02:46;;;;;;;1.42;0.30;;;;;;;13.92;100.00;100945.81;5051628;28;20017;-83
2022/10/25 05:05:12;;;;;;;3.25;0.30;;;;;;;13.92;100.00;100949.25;5051512;28;20562;-83
2022/10/25 05:07:37;;;;;;;5.38;0.50;;;;;;;13.90;100.00;100945.13;5051589;28;20107;-83
2022/10/25 05:10:05;;;;;;;2.72;0.20;;;;;;;13.84;100.00;100945.75;5051616;28;20028;-85
2022/10/25 05:12:30;;;;;;;1.15;0.43;;;;;;;13.84;100.00;100951.81;5050639;28;20029;-86
2022/10/25 05:14:56;;;;;;;1.30;0.40;;;;;;;13.84;100.00;100961.47;5050063;28;20056;-85
2022/10/25 05:17:22;;;;;;;3.97;0.50;;;;;;;13.86;100.00;100973.44;5049567;28;20037;-82
2022/10/25 05:19:47;;;;;;;0.80;0.30;;;;;;;13.81;100.00;100970.44;5049586;28;20021;-86
2022/10/25 05:22:12;;;;;;;1.65;0.38;;;;;;;13.81;100.00;100974.88;5048608;28;20491;-83
2022/10/25 05:24:38;;;;;;;1.25;0.30;;;;;;;13.76;100.00;100974.50;5049310;28;20510;-84
2022/10/25 05:27:03;;;;;;;1.95;0.30;;;;;;;13.77;100.00;100963.88;5050977;28;20485;-85
2022/10/25 05:29:29;;;;;;;2.97;0.20;;;;;;;13.76;100.00;100969.25;5049564;28;20033;-86
2022/10/25 05:31:54;;;;;;;1.08;0.20;;;;;;;13.76;100.00;100974.50;5050902;28;20483;-82
2022/10/25 05:34:20;;;;;;;3.45;0.28;;;;;;;13.75;100.00;100976.28;5049360;28;20495;-83
2022/10/25 05:36:45;;;;;;;3.60;0.38;;;;;;;13.74;100.00;100984.31;5049040;28;20025;-85
2022/10/25 05:39:10;;;;;;;1.55;0.30;;;;;;;13.73;100.00;100987.88;5050473;28;20162;-82
2022/10/25 05:41:36;;;;;;;0.80;0.30;;;;;;;13.72;100.00;100992.31;5050592;28;20041;-87
2022/10/25 05:44:01;;;;;;;3.92;0.60;;;;;;;13.75;100.00;100999.84;5050745;28;20021;-86
2022/10/25 05:46:27;;;;;;;1.42;0.20;;;;;;;13.75;100.00;101002.47;5048490;28;20033;-83
2022/10/25 05:48:53;;;;;;;1.52;0.22;;;;;;;13.75;100.00;101001.66;5064869;28;20017;-83
2022/10/25 05:51:22;;;;;;;0.90;0.30;;;;;;;13.73;100.00;101006.22;5050279;28;20134;-83
2022/10/25 05:53:50;;;;;;;1.10;0.20;;;;;;;13.62;100.00;100996.84;5049821;28;20021;-83
2022/10/25 05:56:16;;;;;;;2.83;0.20;;;;;;;13.58;100.00;101004.16;5049299;28;20037;-83
2022/10/25 05:58:42;;;;;;;1.13;0.10;;;;;;;13.57;100.00;100996.47;5049263;28;20056;-84
2022/10/25 06:01:10;;;;;;;5.47;0.20;;;;;;;13.55;100.00;100991.38;5049679;28;20017;-85
2022/10/25 06:03:35;;;;;;;1.15;0.20;;;;;;;13.59;100.00;100997.13;5049711;28;20028;-84
2022/10/25 06:06:03;;;;;;;1.63;0.80;;;;;;;13.61;100.00;100990.78;5049472;28;20032;-83
2022/10/25 06:08:30;;;;;;;0.98;0.20;;;;;;;13.70;100.00;100993.47;5049254;28;20036;-84
2022/10/25 06:11:01;;;;;;;6.63;0.30;;;;;;;13.76;100.00;100991.03;5049525;28;20036;-86
2022/10/25 06:13:26;;;;;;;2.33;0.30;;;;;;;13.80;100.00;100999.41;5049738;28;20123;-85
2022/10/25 06:15:51;;;;;;;1.92;0.20;;;;;;;13.78;100.00;100998.72;5064369;28;20021;-86
2022/10/25 06:18:17;;;;;;;1.55;0.20;;;;;;;13.71;100.00;100992.47;5049145;28;20033;-87
2022/10/25 06:20:42;;;;;;;3.22;0.30;;;;;;;13.67;100.00;100996.38;5047738;28;20476;-85
2022/10/25 06:23:08;;;;;;;2.78;0.40;;;;;;;13.70;100.00;101014.41;5049760;28;20566;-84
2022/10/25 06:25:33;;;;;;;3.13;0.35;;;;;;;13.74;100.00;101026.19;5047946;28;20403;-86
2022/10/25 06:27:59;;;;;;;0.75;0.30;;;;;;;13.77;100.00;101042.44;5065068;28;20114;-86
2022/10/25 06:30:24;;;;;;;2.70;0.20;;;;;;;13.72;100.00;101046.47;5064665;28;20423;-83
2022/10/25 06:32:49;;;;;;;0.63;0.17;;;;;;;13.67;100.00;101049.56;5064330;28;20039;-83
2022/10/25 06:35:15;;;;;;;1.42;0.28;;;;;;;13.65;100.00;101071.63;5049601;28;20793;-86
2022/10/25 06:37:40;;;;;;;1.52;0.20;;;;;;;13.65;100.00;101067.22;5049357;28;20024;-87
2022/10/25 06:40:06;;;;;;;3.53;0.20;;;;;;;13.62;100.00;101070.16;5049942;28;20100;-85
2022/10/25 06:42:32;;;;;;;3.90;0.20;;;;;;;13.60;100.00;101072.09;5049612;28;20083;-83
2022/10/25 06:44:57;;;;;;;1.08;0.20;;;;;;;13.67;100.00;101060.03;5064266;28;20021;-84
2022/10/25 06:47:23;;;;;;;0.55;0.20;;;;;;;13.67;100.00;101060.03;5049083;28;20463;-85
2022/10/25 06:49:48;;;;;;;2.95;0.20;;;;;;;13.66;100.00;101062.81;5049096;28;20017;-84
2022/10/25 06:52:14;;;;;;;1.17;0.30;;;;;;;13.65;100.00;101071.63;5049216;28;20040;-84
2022/10/25 06:54:39;;;;;;;4.07;0.20;;;;;;;13.66;100.00;101078.53;5064470;28;20067;-86
2022/10/25 06:57:07;;;;;;;1.23;0.17;;;;;;;13.66;100.00;101078.53;5048997;28;20066;-83
2022/10/25 06:59:32;;;;;;;5.82;0.20;;;;;;;13.77;100.00;101065.19;5048809;28;20425;-85
2022/10/25 07:01:58;;;;;;;5.95;0.30;;;;;;;13.86;100.00;101074.75;5074378;28;20435;-83
2022/10/25 07:04:51;;;;;;;1.45;0.30;;;;;;;14.06;100.00;101072.81;5058746;28;20031;-84
2022/10/25 07:07:55;;;;;;;2.08;0.20;;;;;;;14.25;100.00;101073.41;4989094;28;20155;-84
2022/10/25 07:10:57;;;;;;;1.17;0.30;;;;;;;14.31;100.00;101073.78;5059001;28;20025;-83
2022/10/25 08:08:28;;;;;;;4.72;0.35;;;;;;;14.81;100.00;101089.66;4965918;28;20123;-84
2022/10/25 08:15:35;;;;;;;2.90;0.20;;;;;;;14.67;100.00;101091.06;4927482;29;20530;-83
2022/10/25 08:18:19;;;;;;;0.43;0.15;;;;;;;14.77;100.00;101098.81;4926007;29;20043;-82
2022/10/25 08:21:05;;;;;;;3.47;0.20;;;;;;;14.81;100.00;101089.66;4927067;29;20047;-82
2022/10/25 08:23:34;;;;;;;2.58;0.63;;;;;;;14.88;100.00;101095.94;4927251;29;20090;-83
2022/10/25 08:26:15;;;;;;;2.03;0.30;;;;;;;14.87;100.00;101084.63;4911328;29;20123;-83
2022/10/25 08:28:51;;;;;;;1.65;0.63;;;;;;;14.82;100.00;101088.69;4927186;29;20075;-83
2022/10/25 08:31:16;;;;;;;2.83;0.30;;;;;;;14.83;100.00;101090.31;4927878;29;20040;-81
2022/10/25 08:34:44;;;;;;;2.33;0.20;;;;;;;14.82;100.00;101089.50;4929950;29;20455;-83
2022/10/25 08:37:11;;;;;;;2.05;0.20;;;;;;;14.83;100.00;101093.78;4872097;29;20470;-81
2022/10/25 08:39:37;;;;;;;1.92;0.30;;;;;;;14.94;100.00;101092.69;4872098;29;20056;-82
2022/10/25 08:42:03;;;;;;;1.50;0.30;;;;;;;15.00;100.00;101091.22;4898123;29;20130;-83
2022/10/25 08:44:42;;;;;;;0.85;0.13;;;;;;;15.03;100.00;101096.16;4914282;29;20099;-82
2022/10/25 08:47:25;;;;;;;0.63;0.30;;;;;;;15.03;100.00;101101.41;4927710;29;20499;-83
2022/10/25 08:50:05;;;;;;;1.15;0.17;;;;;;;15.04;100.00;101114.38;4927147;29;20032;-83
2022/10/25 08:53:02;;;;;;;0.55;0.10;;;;;;;15.06;100.00;101116.84;4926811;29;20604;-82
2022/10/25 08:56:27;;;;;;;1.77;0.20;;;;;;;15.13;100.00;101116.03;4926579;29;20508;-84
2022/10/25 08:59:02;;;;;;;0.70;0.20;;;;;;;15.16;100.00;101123.59;4947370;29;20049;-81
2022/10/25 09:01:50;;;;;;;2.17;0.20;;;;;;;15.20;100.00;101118.84;4933127;29;20043;-82
2022/10/25 09:04:16;;;;;;;3.03;0.20;;;;;;;15.24;100.00;101109.69;4949269;29;20696;-81
2022/10/25 09:07:00;;;;;;;0.75;0.10;;;;;;;15.25;100.00;101103.44;4950258;28;20042;-83
2022/10/25 09:09:52;;;;;;;3.13;0.20;;;;;;;15.26;100.00;101112.97;5010389;28;20072;-81
2022/10/25 09:12:36;;;;;;;2.42;0.20;;;;;;;15.18;100.00;101105.88;5027021;28;20037;-83
2022/10/25 09:15:11;;;;;;;2.22;0.10;;;;;;;15.08;100.00;101099.13;5026960;28;20127;-80
2022/10/25 09:17:48;;;;;;;3.63;0.20;;;;;;;15.08;100.00;101101.75;5027218;28;20441;-81
2022/10/25 09:20:23;;;;;;;1.50;0.13;;;;;;;15.14;100.00;101106.34;5028076;28;20112;-81
2022/10/25 09:23:10;;;;;;;1.00;0.10;;;;;;;15.21;100.00;101112.63;5010975;28;20120;-83
2022/10/25 09:26:04;;;;;;;1.90;0.10;;;;;;;15.36;100.00;101112.84;5010402;28;20070;-82
2022/10/25 09:28:38;;;;;;;1.65;0.20;;;;;;;15.39;100.00;101115.97;4989534;28;20050;-83
2022/10/25 09:31:06;;;;;;;0.93;0.10;;;;;;;15.52;100.00;101102.38;4994894;28;20068;-84
2022/10/25 09:33:33;;;;;;;1.65;0.20;;;;;;;15.63;100.00;101109.13;5004048;28;20065;-82
2022/10/25 09:35:59;;;;;;;2.88;0.15;;;;;;;15.69;100.00;101114.56;5034997;28;20041;-82
2022/10/25 09:38:37;;;;;;;1.95;0.30;;;;;;;15.59;100.00;101109.50;5046804;28;20029;-81
2022/10/25 09:41:09;;;;;;;0.20;0.10;;;;;;;15.61;100.00;101117.19;5028778;28;20032;-81
2022/10/25 09:43:55;;;;;;;2.42;0.10;;;;;;;15.65;100.00;101115.06;5027519;28;20031;-83
2022/10/25 09:46:41;;;;;;;0.43;0.05;;;;;;;15.51;100.00;101117.31;5046056;28;20048;-82
2022/10/25 09:49:28;;;;;;;0.95;0.00;;;;;;;15.45;100.00;101117.97;5042728;28;20344;-82
2022/10/25 09:52:33;;;;;;;0.85;0.10;;;;;;;15.49;100.00;101119.28;5047210;28;20032;-82
2022/10/25 09:55:34;;;;;;;0.55;0.05;;;;;;;15.41;100.00;101124.50;4966232;28;20099;-81
2022/10/25 09:58:00;;;;;;;2.95;0.00;;;;;;;15.33;100.00;101126.28;4961368;28;20054;-83
2022/10/25 10:00:26;;;;;;;2.03;0.10;;;;;;;15.35;100.00;101138.28;4966786;28;20418;-81
2022/10/25 10:02:54;;;;;;;0.90;0.00;;;;;;;15.31;100.00;101136.94;4976321;28;20122;-82
2022/10/25 10:05:21;;;;;;;0.47;0.10;;;;;;;15.31;100.00;101136.94;4986674;28;20201;-82
2022/10/25 10:07:48;;;;;;;1.85;0.10;;;;;;;15.24;100.00;101130.69;4984114;28;20030;-82
2022/10/25 10:10:25;;;;;;;1.23;0.00;;;;;;;15.21;100.00;101136.25;4984795;28;20042;-84
2022/10/25 10:12:59;;;;;;;0.75;0.10;;;;;;;15.24;100.00;101142.00;4986056;28;20129;-82
2022/10/25 10:15:33;;;;;;;1.25;0.10;;;;;;;15.34;100.00;101138.44;4984711;28;20121;-83
2022/10/25 10:18:21;;;;;;;1.48;0.10;;;;;;;15.42;100.00;101138.47;4968048;28;20046;-83
2022/10/25 10:21:12;;;;;;;5.85;0.40;;;;;;;15.49;100.00;101135.03;4986426;28;20394;-82
2022/10/25 10:23:55;;;;;;;0.73;0.20;;;;;;;15.60;100.00;101129.50;4968672;28;20046;-83
2022/10/25 10:26:27;;;;;;;1.95;0.10;;;;;;;15.60;100.00;101126.03;4985279;28;20516;-82
2022/10/25 10:29:04;;;;;;;0.32;0.10;;;;;;;15.54;100.00;101124.88;4986189;28;20034;-82
2022/10/25 10:31:38;;;;;;;0.60;0.20;;;;;;;15.52;100.00;101118.13;5041535;28;20057;-81
2022/10/25 10:34:06;;;;;;;1.85;0.10;;;;;;;15.50;100.00;101120.94;5047082;28;20037;-83
2022/10/25 10:36:32;;;;;;;0.60;0.05;;;;;;;15.51;100.00;101122.56;5063058;28;20078;-83
2022/10/25 10:39:20;;;;;;;0.82;0.10;;;;;;;15.49;100.00;101123.72;5045278;28;20127;-81
2022/10/25 10:42:14;;;;;;;0.20;0.00;;;;;;;15.56;100.00;101115.06;5045637;28;20024;-82
2022/10/25 10:44:39;;;;;;;1.40;0.10;;;;;;;15.68;100.00;101117.34;5042853;28;20508;-84
2022/10/25 10:47:19;;;;;;;0.82;0.10;;;;;;;15.65;100.00;101113.25;5046634;28;20025;-83
2022/10/25 10:49:46;;;;;;;0.77;0.10;;;;;;;15.59;100.00;101104.25;5054941;28;20043;-83
2022/10/25 10:52:42;;;;;;;2.90;0.10;;;;;;;15.53;100.00;101104.84;5045668;28;20076;-82
2022/10/25 10:55:28;;;;;;;0.20;0.10;;;;;;;15.47;100.00;101109.91;5044871;28;20471;-84
2022/10/25 10:57:59;;;;;;;0.30;0.20;;;;;;;15.51;100.00;101113.88;5045479;28;20455;-82
2022/10/25 11:00:28;;;;;;;1.65;0.10;;;;;;;15.63;100.00;101114.38;5054690;28;20130;-81
2022/10/25 11:02:53;;;;;;;0.47;0.10;;;;;;;15.75;100.00;101113.09;5058006;28;20125;-82
2022/10/25 11:05:26;;;;;;;1.17;0.10;;;;;;;15.85;100.00;101113.78;5065582;28;20554;-81
2022/10/25 11:08:00;;;;;;;1.63;0.10;;;;;;;15.97;100.00;101109.03;5066469;28;20036;-82
2022/10/25 11:10:29;;;;;;;0.40;0.10;;;;;;;16.13;100.00;101109.00;5071151;28;20340;-82
2022/10/25 11:13:19;;;;;;;2.95;0.10;;;;;;;16.12;100.00;101110.81;5087425;28;20115;-81
2022/10/25 11:15:50;;;;;;;0.77;0.10;;;;;;;16.12;100.00;101110.00;5070967;28;20031;-82
2022/10/25 11:18:17;;;;;;;1.30;0.10;;;;;;;16.14;100.00;101119.34;5065860;28;20433;-81
2022/10/25 11:20:52;;;;;;;0.50;0.13;;;;;;;16.23;100.00;101110.47;5062122;28;20052;-82
2022/10/25 11:23:42;;;;;;;0.10;0.05;;;;;;;16.37;100.00;101102.91;5066245;28;20482;-83
2022/10/25 11:26:17;;;;;;;1.65;0.10;;;;;;;16.50;100.00;101109.31;5063681;28;20036;-83
2022/10/25 11:29:00;;;;;;;;;;;;;;;16.46;100.00;101102.75;5065942;28;20032;-84
2022/10/25 11:31:31;;;;;;;2.40;0.28;;;;;;;16.52;100.00;101099.44;5060861;28;19947;-82
2022/10/25 11:34:45;;;;;;;0.50;0.00;;;;;;;16.53;100.00;101095.00;5046259;28;20078;-83
2022/10/25 11:37:23;;;;;;;0.55;0.08;;;;;;;16.51;100.00;101094.34;5012957;28;20061;-83
2022/10/25 11:39:58;;;;;;;2.78;0.10;;;;;;;16.52;100.00;101082.84;5053720;28;20061;-83
2022/10/25 11:42:30;;;;;;;0.95;0.30;;;;;;;16.54;100.00;101080.88;5045528;28;20030;-82
2022/10/25 11:45:21;;;;;;;0.90;0.10;;;;;;;16.50;100.00;101076.94;5063075;28;20044;-83
2022/10/25 11:48:02;;;;;;;1.20;0.10;;;;;;;16.60;100.00;101074.91;5065799;28;20032;-83
2022/10/25 11:50:55;;;;;;;0.35;0.10;;;;;;;16.59;100.00;101071.44;5047251;28;20036;-83
2022/10/25 11:53:36;;;;;;;2.38;0.10;;;;;;;16.63;100.00;101077.19;5032979;28;20037;-82
2022/10/25 11:56:36;;;;;;;0.40;0.10;;;;;;;16.54;100.00;101068.50;5065750;28;20510;-84
2022/10/25 11:59:18;;;;;;;0.63;0.10;;;;;;;16.51;100.00;101066.25;5042389;28;20083;-83
2022/10/25 12:01:57;;;;;;;1.00;0.15;;;;;;;16.50;100.00;101069.03;5042920;28;20033;-84
2022/10/25 12:04:31;;;;;;;0.68;0.10;;;;;;;16.54;100.00;101071.13;5042586;28;20084;-84
2022/10/25 12:07:15;;;;;;;0.22;0.05;;;;;;;16.58;100.00;101071.63;5027319;28;20479;-83
2022/10/25 12:10:06;;;;;;;0.40;0.10;;;;;;;16.67;100.00;101061.94;5041449;28;20064;-82
2022/10/25 12:12:47;;;;;;;0.10;0.10;;;;;;;16.77;100.00;101063.38;5038888;28;20514;-83
2022/10/25 12:15:22;;;;;;;0.10;0.00;;;;;;;16.85;100.00;101059.91;5022261;28;20140;-85
2022/10/25 12:17:49;;;;;;;3.10;0.10;;;;;;;16.89;100.00;101061.19;5041601;28;20365;-84
2022/10/25 12:20:27;;;;;;;0.98;0.10;;;;;;;16.82;100.00;101058.44;5042398;28;20438;-83
2022/10/25 12:22:57;;;;;;;0.20;0.10;;;;;;;16.79;100.00;101058.75;5037143;28;20102;-83
2022/10/25 12:25:30;;;;;;;0.73;0.10;;;;;;;16.75;100.00;101054.00;5043540;28;20098;-84
2022/10/25 12:28:24;;;;;;;1.45;0.15;;;;;;;16.61;100.00;101044.97;5042100;28;20170;-84
2022/10/25 12:30:55;;;;;;;1.77;0.10;;;;;;;16.54;100.00;101051.94;5041801;28;20541;-84
2022/10/25 12:33:34;;;;;;;1.00;0.00;;;;;;;16.48;100.00;101045.53;5043438;28;20060;-82
2022/10/25 12:36:13;;;;;;;0.52;0.13;;;;;;;16.52;100.00;101052.09;5053259;28;20148;-83
2022/10/25 12:38:39;;;;;;;0.25;0.03;;;;;;;16.47;100.00;101045.69;5067191;28;20031;-83
2022/10/25 12:41:23;;;;;;;0.43;0.00;;;;;;;16.46;100.00;101046.69;5068723;28;20387;-84